.
WxDataArchive / Data Records for 2009-05-24
2009-05-23 May 2009 2009-05-25

Data Records for Sunday, 24 May 2009

Time	Temp	Chill	HIndex	Humid	Dewpt	 Wind 	HiWind	WindDir	Rain 	Barom 
-----	----	-----	------	-----	-----	------	------	-------	-----	----- 
00:00	64.8	64.8	64.8	72	55.6	0	0	---	0.00	30.005 
00:05	64.8	64.8	64.8	72	55.6	0	0	---	0.00	30.005 
00:10	64.7	64.7	64.7	73	55.8	0	0	---	0.00	30.005 
00:15	64.5	64.5	64.5	74	56.0	0	0	---	0.00	30.006 
00:20	64.5	64.5	64.5	74	56.0	0	0	---	0.00	30.006 
00:25	64.3	64.3	64.3	75	56.2	0	0	---	0.00	30.006 
00:30	64.2	64.2	64.2	75	56.1	0	0	---	0.00	30.003 
00:35	64.2	64.2	64.2	75	56.1	0	0	---	0.00	30.003 
00:40	64.3	64.3	64.3	76	56.6	0	0	---	0.00	30.003 
00:45	64.5	64.5	64.5	76	56.8	0	0	---	0.00	30.001 
00:50	64.5	64.5	64.5	76	56.8	0	0	---	0.00	30.001 
00:55	64.7	64.7	64.7	76	57.0	0	0	---	0.00	30.001 
01:00	64.8	64.8	64.8	76	57.0	0	0	---	0.00	30.000 
01:05	64.8	64.8	64.8	76	57.0	0	0	---	0.00	30.000 
01:10	65.0	65.0	65.0	77	57.6	0	0	---	0.00	30.000 
01:15	65.0	65.0	65.0	77	57.6	0	0	---	0.00	29.998 
01:20	65.0	65.0	65.0	77	57.6	0	0	---	0.00	29.998 
01:25	65.0	65.0	65.0	77	57.6	0	0	---	0.00	29.998 
01:30	65.0	65.0	65.0	77	57.6	0	0	---	0.00	29.997 
01:35	65.2	65.2	65.2	77	57.8	0	0	---	0.00	29.997 
01:40	65.2	65.2	65.2	77	57.8	0	0	---	0.00	29.997 
01:45	65.2	65.2	65.2	77	57.8	0	0	---	0.00	29.994 
01:50	65.2	65.2	65.2	77	57.8	0	0	---	0.00	29.994 
01:55	65.2	65.2	65.2	77	57.8	0	0	---	0.00	29.994 
02:00	65.2	65.2	65.2	77	57.8	0	0	---	0.00	29.987 
02:05	65.0	65.0	65.0	77	57.6	0	0	---	0.00	29.987 
02:10	64.8	64.8	64.8	77	57.4	0	0	---	0.00	29.987 
02:15	64.7	64.7	64.7	78	57.7	0	0	---	0.00	29.985 
02:20	64.5	64.5	64.5	78	57.5	0	0	---	0.00	29.985 
02:25	64.3	64.3	64.3	78	57.3	0	0	---	0.00	29.985 
02:30	64.2	64.2	64.2	79	57.5	0	0	---	0.00	29.985 
02:35	63.9	63.9	63.9	79	57.3	0	0	---	0.00	29.985 
02:40	63.5	63.5	63.5	81	57.6	0	0	---	0.00	29.985 
02:45	63.2	63.2	63.2	81	57.3	0	0	---	0.00	29.988 
02:50	63.2	63.2	63.2	82	57.6	0	0	---	0.00	29.988 
02:55	63.2	63.2	63.2	82	57.6	0	0	---	0.00	29.988 
03:00	63.1	63.1	63.1	82	57.5	0	0	---	0.00	29.992 
03:05	63.1	63.1	63.1	82	57.5	0	0	---	0.00	29.992 
03:10	63.1	63.1	63.1	83	57.8	0	0	---	0.00	29.992 
03:15	63.1	63.1	63.1	83	57.8	0	0	---	0.00	29.987 
03:20	63.1	63.1	63.1	82	57.5	0	0	---	0.00	29.987 
03:25	63.1	63.1	63.1	82	57.5	0	0	---	0.00	29.987 
03:30	63.1	63.1	63.1	83	57.8	0	0	---	0.00	29.983 
03:35	63.2	63.2	63.2	83	57.9	0	0	---	0.00	29.983 
03:40	63.2	63.2	63.2	82	57.6	0	0	---	0.00	29.983 
03:45	63.2	63.2	63.2	82	57.6	0	0	---	0.00	29.981 
03:50	63.2	63.2	63.2	82	57.6	0	0	---	0.00	29.981 
03:55	63.2	63.2	63.2	82	57.6	0	0	---	0.00	29.981 
04:00	63.1	63.1	63.1	82	57.5	0	0	---	0.00	29.980 
04:05	62.9	62.9	62.9	82	57.3	0	0	---	0.00	29.980 
04:10	62.7	62.7	62.7	82	57.1	0	0	---	0.00	29.980 
04:15	62.6	62.6	62.6	82	57.0	0	0	---	0.00	29.978 
04:20	62.3	62.3	62.3	83	57.1	0	0	---	0.00	29.978 
04:25	62.3	62.3	62.3	83	57.1	0	0	---	0.00	29.978 
04:30	62.1	62.1	62.1	83	56.9	0	0	---	0.00	29.981 
04:35	62.1	62.1	62.1	83	56.9	0	0	---	0.00	29.981 
04:40	62.1	62.1	62.1	83	56.9	0	0	---	0.00	29.981 
04:45	62.0	62.0	62.0	83	56.8	0	0	---	0.00	29.981 
04:50	61.8	61.8	61.8	83	56.6	0	0	---	0.00	29.981 
04:55	61.6	61.6	61.6	83	56.4	0	0	---	0.00	29.981 
05:00	61.5	61.5	61.5	83	56.3	0	0	---	0.00	29.983 
05:05	61.2	61.2	61.2	84	56.3	0	0	---	0.00	29.983 
05:10	61.0	61.0	61.0	84	56.1	0	0	---	0.00	29.983 
05:15	60.9	60.9	60.9	85	56.4	0	0	---	0.00	29.983 
05:20	60.9	60.9	60.9	86	56.7	0	0	---	0.00	29.983 
05:25	60.9	60.9	60.9	86	56.7	0	0	---	0.00	29.983 
05:30	61.0	61.0	61.0	86	56.8	0	0	---	0.00	29.988 
05:35	61.0	61.0	61.0	86	56.8	0	0	---	0.00	29.988 
05:40	61.0	61.0	61.0	86	56.8	0	0	---	0.00	29.988 
05:45	61.0	61.0	61.0	86	56.8	0	0	---	0.00	29.995 
05:50	61.0	61.0	61.0	86	56.8	0	0	---	0.00	29.995 
05:55	60.9	60.9	60.9	86	56.7	0	0	---	0.00	29.995 
06:00	60.7	60.7	60.7	86	56.5	0	0	---	0.00	29.997 
06:05	60.7	60.7	60.7	86	56.5	0	0	---	0.00	29.997 
06:10	60.5	60.5	60.5	86	56.3	0	0	---	0.00	29.997 
06:15	60.4	60.4	60.4	86	56.2	0	0	---	0.00	30.004 
06:20	60.4	60.4	60.4	87	56.5	0	0	---	0.00	30.004 
06:25	60.4	60.4	60.4	87	56.5	0	0	---	0.00	30.004 
06:30	60.4	60.4	60.4	87	56.5	0	0	---	0.00	30.010 
06:35	60.4	60.4	60.4	88	56.8	0	0	---	0.00	30.010 
06:40	60.5	60.5	60.5	87	56.6	0	0	---	0.00	30.010 
06:45	60.7	60.7	60.7	87	56.8	0	2	135	0.00	30.008 
06:50	61.0	61.0	61.0	86	56.8	0	2	135	0.00	30.008 
06:55	61.6	61.6	61.6	84	56.7	0	3	135	0.00	30.008 
07:00	62.3	62.3	62.3	82	56.7	0	2	135	0.00	30.010 
07:05	62.7	62.7	62.7	81	56.8	0	3	135	0.00	30.010 
07:10	62.9	62.9	62.9	81	57.0	0	0	---	0.00	30.010 
07:15	63.2	63.2	63.2	80	56.9	0	1	135	0.00	30.013 
07:20	63.4	63.4	63.4	80	57.1	0	0	---	0.00	30.013 
07:25	63.7	63.7	63.7	79	57.1	0	1	135	0.00	30.013 
07:30	64.0	64.0	64.0	79	57.4	0	0	---	0.00	30.025 
07:35	64.3	64.3	64.3	78	57.3	0	1	135	0.00	30.025 
07:40	64.7	64.7	64.7	78	57.7	0	2	135	0.00	30.025 
07:45	65.0	65.0	65.0	77	57.6	1	3	135	0.00	30.020 
07:50	65.2	65.2	65.2	77	57.8	0	2	135	0.00	30.020 
07:55	65.5	65.5	65.5	76	57.7	0	4	158	0.00	30.020 
08:00	65.8	65.8	65.8	75	57.6	1	5	158	0.00	30.022 
08:05	66.3	66.3	66.3	76	58.5	0	2	135	0.00	30.022 
08:10	66.8	66.8	66.8	74	58.2	1	4	112	0.00	30.022 
08:15	67.3	67.3	67.3	73	58.3	1	3	90	0.00	30.027 
08:20	67.8	67.8	67.8	72	58.4	1	3	90	0.00	30.027 
08:25	68.3	68.3	68.3	71	58.5	1	4	112	0.00	30.027 
08:30	68.6	68.6	68.6	72	59.2	1	3	112	0.00	30.025 
08:35	68.9	68.9	68.9	71	59.1	1	3	90	0.00	30.025 
08:40	69.3	69.3	69.3	70	59.1	1	4	90	0.00	30.025 
08:45	69.4	69.4	69.4	70	59.2	2	5	112	0.00	30.029 
08:50	69.9	69.9	69.9	69	59.3	1	3	112	0.00	30.029 
08:55	70.3	70.3	70.3	69	59.6	1	4	90	0.00	30.029 
09:00	70.6	70.6	70.6	67	59.1	2	3	112	0.00	30.028 
09:05	70.9	70.9	70.9	67	59.4	1	3	90	0.00	30.028 
09:10	71.1	71.1	71.1	66	59.2	2	4	112	0.00	30.028 
09:15	71.3	71.3	71.3	66	59.3	2	6	90	0.00	30.032 
09:20	71.6	71.6	71.6	66	59.6	1	4	90	0.00	30.032 
09:25	72.0	72.0	72.0	65	59.6	1	3	90	0.00	30.032 
09:30	72.5	72.5	72.5	64	59.6	2	5	112	0.00	30.030 
09:35	73.0	73.0	73.0	64	60.1	1	3	112	0.00	30.030 
09:40	73.3	73.3	73.3	62	59.5	2	4	112	0.00	30.030 
09:45	73.7	73.7	73.7	65	61.2	1	4	112	0.00	30.029 
09:50	73.9	73.9	73.9	62	60.0	1	4	135	0.00	30.029 
09:55	74.0	74.0	74.0	61	59.7	1	4	112	0.00	30.029 
10:00	74.4	74.4	74.4	60	59.6	1	6	112	0.00	30.031 
10:05	74.9	74.9	74.9	62	61.0	0	2	68	0.00	30.031 
10:10	75.3	75.3	77.5	60	60.4	1	4	112	0.00	30.031 
10:15	75.6	75.6	77.7	60	60.7	1	3	112	0.00	30.032 
10:20	75.3	75.3	77.6	59	60.0	2	5	68	0.00	30.032 
10:25	75.3	75.3	77.5	60	60.4	2	3	135	0.00	30.032 
10:30	75.6	75.6	77.8	58	59.8	1	7	68	0.00	30.030 
10:35	75.4	75.4	77.7	56	58.6	4	7	90	0.00	30.030 
10:40	75.6	75.6	77.8	57	59.3	2	5	90	0.00	30.030 
10:45	76.0	76.0	78.1	56	59.2	3	7	90	0.00	30.027 
10:50	76.1	76.1	78.1	55	58.7	3	9	90	0.00	30.027 
10:55	76.5	76.5	78.4	55	59.1	3	5	90	0.00	30.027 
11:00	76.7	76.7	78.5	55	59.3	3	9	90	0.00	30.029 
11:05	76.7	76.7	78.5	56	59.8	3	9	90	0.00	30.029 
11:10	77.2	77.2	78.9	56	60.3	2	7	90	0.00	30.029 
11:15	77.6	77.6	79.2	56	60.6	2	6	112	0.00	30.028 
11:20	78.1	78.1	79.5	53	59.6	2	5	112	0.00	30.028 
11:25	78.3	78.3	79.6	53	59.7	3	8	90	0.00	30.028 
11:30	78.5	78.5	79.7	52	59.4	2	5	112	0.00	30.027 
11:35	78.5	78.5	79.8	53	59.9	2	5	112	0.00	30.027 
11:40	78.6	78.6	79.8	52	59.5	3	7	90	0.00	30.027 
11:45	78.6	78.6	79.8	52	59.5	2	7	112	0.00	30.026 
11:50	78.8	78.8	79.9	51	59.1	3	7	90	0.00	30.026 
11:55	79.0	79.0	80.1	52	59.8	2	6	90	0.00	30.026 
12:00	79.2	79.2	80.3	52	60.0	2	5	112	0.00	30.027 
12:05	79.4	79.4	80.5	52	60.2	2	6	112	0.00	30.027 
12:10	79.8	79.8	80.7	51	60.0	2	6	90	0.00	30.027 
12:15	79.4	79.4	80.4	51	59.7	3	7	90	0.00	30.024 
12:20	79.6	79.6	80.6	52	60.4	3	5	112	0.00	30.024 
12:25	79.8	79.8	80.6	50	59.5	2	6	90	0.00	30.024 
12:30	79.9	79.9	80.8	51	60.1	2	6	90	0.00	30.025 
12:35	80.3	80.3	81.1	50	59.9	2	4	112	0.00	30.025 
12:40	80.9	80.9	81.6	50	60.5	2	4	112	0.00	30.025 
12:45	80.9	80.9	81.8	51	61.0	2	7	90	0.00	30.017 
12:50	80.9	80.9	81.5	49	59.9	2	6	90	0.00	30.017 
12:55	80.7	80.7	81.4	50	60.3	3	6	112	0.00	30.017 
13:00	80.3	80.3	81.1	50	59.9	2	4	90	0.00	30.016 
13:05	80.3	80.3	81.2	51	60.5	1	4	90	0.00	30.016 
13:10	79.9	79.9	80.6	49	59.0	3	7	90	0.00	30.016 
13:15	79.8	79.8	80.5	49	58.9	2	6	68	0.00	30.020 
13:20	79.8	79.8	80.8	52	60.6	2	7	112	0.00	30.020 
13:25	80.3	80.3	81.3	52	61.0	1	5	112	0.00	30.020 
13:30	80.9	80.9	81.9	52	61.6	1	3	112	0.00	30.014 
13:35	81.1	81.1	81.7	49	60.1	2	5	112	0.00	30.014 
13:40	81.1	81.1	81.8	50	60.7	1	5	112	0.00	30.014 
13:45	81.1	81.1	81.8	50	60.7	2	4	112	0.00	30.013 
13:50	81.4	81.4	82.0	49	60.4	2	6	90	0.00	30.013 
13:55	81.6	81.6	81.9	47	59.4	2	7	112	0.00	30.013 
14:00	81.4	81.4	82.0	49	60.4	2	6	112	0.00	30.010 
14:05	81.2	81.2	81.7	48	59.6	2	5	90	0.00	30.010 
14:10	81.2	81.2	82.1	51	61.3	1	4	90	0.00	30.010 
14:15	81.8	81.8	82.8	52	62.4	1	4	112	0.00	30.008 
14:20	82.2	82.2	83.1	51	62.2	1	4	90	0.00	30.008 
14:25	82.4	82.4	82.7	47	60.1	1	4	112	0.00	30.008 
14:30	82.2	82.2	82.4	46	59.3	2	5	90	0.00	30.002 
14:35	82.2	82.2	82.7	48	60.5	2	4	90	0.00	30.002 
14:40	82.2	82.2	82.5	47	59.9	2	5	112	0.00	30.002 
14:45	82.4	82.4	83.0	49	61.3	2	6	68	0.00	29.998 
14:50	82.6	82.6	83.3	49	61.5	1	4	135	0.00	29.998 
14:55	83.2	83.2	83.8	48	61.4	1	3	135	0.00	29.998 
15:00	83.4	83.4	83.5	45	59.8	0	2	135	0.00	29.995 
15:05	83.6	83.6	83.5	44	59.3	2	4	90	0.00	29.995 
15:10	83.6	83.6	84.2	48	61.8	1	4	180	0.00	29.995 
15:15	83.8	83.8	83.6	43	58.9	1	5	90	0.00	29.996 
15:20	83.8	83.8	83.9	45	60.2	1	3	68	0.00	29.996 
15:25	83.4	83.4	83.3	44	59.2	1	6	112	0.00	29.996 
15:30	83.4	83.4	84.0	48	61.6	1	5	112	0.00	29.993 
15:35	83.2	83.2	83.3	45	59.6	2	5	90	0.00	29.993 
15:40	83.4	83.4	83.5	45	59.8	1	3	90	0.00	29.993 
15:45	83.6	83.6	84.1	47	61.2	1	4	90	0.00	29.988 
15:50	83.6	83.6	83.4	43	58.7	2	7	90	0.00	29.988 
15:55	83.4	83.4	84.0	48	61.6	1	6	112	0.00	29.988 
16:00	83.2	83.2	83.0	43	58.3	0	2	112	0.00	29.982 
16:05	83.6	83.6	83.9	46	60.6	0	3	112	0.00	29.982 
16:10	83.4	83.4	83.7	46	60.4	0	3	112	0.00	29.982 
16:15	82.8	82.8	82.7	44	58.6	0	3	90	0.00	29.983 
16:20	82.8	82.8	82.9	45	59.3	0	3	90	0.00	29.983 
16:25	83.0	83.0	83.1	45	59.4	1	5	90	0.00	29.983 
16:30	83.2	83.2	83.6	47	60.8	1	3	90	0.00	29.979 
16:35	83.2	83.2	83.6	47	60.8	1	3	112	0.00	29.979 
16:40	83.0	83.0	83.4	47	60.7	0	1	112	0.00	29.979 
16:45	83.0	83.0	83.2	46	60.1	1	5	112	0.00	29.973 
16:50	83.0	83.0	83.5	48	61.3	2	4	112	0.00	29.973 
16:55	82.8	82.8	83.7	50	62.2	2	4	112	0.00	29.973 
17:00	82.2	82.2	83.3	52	62.8	2	6	112	0.00	29.970 
17:05	81.8	81.8	82.6	50	61.3	2	5	112	0.00	29.970 
17:10	81.6	81.6	82.3	50	61.1	1	7	90	0.00	29.970 
17:15	81.4	81.4	82.1	50	60.9	2	6	135	0.00	29.970 
17:20	80.9	80.9	81.8	51	61.0	3	6	90	0.00	29.970 
17:25	80.3	80.3	81.3	52	61.0	2	5	90	0.00	29.970 
17:30	80.1	80.1	81.3	54	61.9	2	6	135	0.00	29.969 
17:35	80.1	80.1	81.2	53	61.4	2	6	112	0.00	29.969 
17:40	79.9	79.9	80.9	52	60.7	2	10	112	0.00	29.969 
17:45	79.6	79.6	80.7	53	60.9	2	5	112	0.00	29.968 
17:50	79.4	79.4	80.5	53	60.8	1	3	90	0.00	29.968 
17:55	79.2	79.2	80.3	52	60.0	2	9	90	0.00	29.968 
18:00	79.2	79.2	80.4	53	60.6	1	5	90	0.00	29.965 
18:05	78.8	78.8	79.9	52	59.7	4	10	112	0.00	29.965 
18:10	78.6	78.6	79.8	52	59.5	4	9	112	0.00	29.965 
18:15	78.5	78.5	79.7	52	59.4	2	7	90	0.00	29.968 
18:20	78.1	78.1	79.6	56	61.1	2	7	90	0.00	29.968 
18:25	77.2	77.2	78.9	58	61.3	2	7	112	0.00	29.968 
18:30	76.5	76.5	78.4	59	61.1	1	5	112	0.00	29.971 
18:35	76.5	76.5	78.4	57	60.1	1	4	112	0.00	29.971 
18:40	76.5	76.5	78.4	58	60.6	1	4	112	0.00	29.971 
18:45	76.5	76.5	78.4	57	60.1	1	4	135	0.00	29.970 
18:50	76.3	76.3	78.3	57	59.9	2	6	135	0.00	29.970 
18:55	76.0	76.0	78.0	58	60.1	1	3	112	0.00	29.970 
19:00	75.8	75.8	77.9	58	59.9	2	5	68	0.00	29.969 
19:05	75.6	75.6	77.8	59	60.2	1	4	112	0.00	29.969 
19:10	75.4	75.4	77.6	59	60.1	1	4	112	0.00	29.969 
19:15	75.1	75.1	77.5	58	59.3	1	4	90	0.00	29.969 
19:20	75.1	75.1	77.5	59	59.8	1	4	45	0.00	29.969 
19:25	74.9	74.9	74.9	57	58.6	2	5	90	0.00	29.969 
19:30	74.9	74.9	74.9	55	57.6	2	9	90	0.00	29.971 
19:35	74.9	74.9	74.9	54	57.1	3	9	90	0.00	29.971 
19:40	74.7	74.7	74.7	54	56.9	4	13	90	0.00	29.971 
19:45	74.6	74.6	74.6	55	57.3	2	7	90	0.00	29.974 
19:50	74.2	74.2	74.2	54	56.5	3	9	90	0.00	29.974 
19:55	74.0	74.0	74.0	55	56.8	3	10	90	0.00	29.974 
20:00	73.9	73.9	73.9	56	57.2	3	6	90	0.00	29.980 
20:05	73.5	73.5	73.5	55	56.3	4	8	90	0.00	29.980 
20:10	73.2	73.2	73.2	55	56.0	4	11	112	0.00	29.980 
20:15	73.0	73.0	73.0	56	56.4	3	9	90	0.00	29.982 
20:20	72.7	72.7	72.7	57	56.6	3	10	68	0.00	29.982 
20:25	72.3	72.3	72.3	58	56.7	3	9	112	0.00	29.982 
20:30	72.0	72.0	72.0	58	56.4	2	5	112	0.00	29.987 
20:35	71.8	71.8	71.8	58	56.2	2	5	90	0.00	29.987 
20:40	71.5	71.5	71.5	59	56.4	3	6	90	0.00	29.987 
20:45	71.1	71.1	71.1	59	56.0	3	9	90	0.00	29.991 
20:50	70.8	70.8	70.8	59	55.7	3	10	112	0.00	29.991 
20:55	70.6	70.6	70.6	60	56.0	2	5	90	0.00	29.991 
21:00	70.3	70.3	70.3	61	56.2	2	5	112	0.00	30.000 
21:05	70.1	70.1	70.1	61	56.0	2	6	112	0.00	30.000 
21:10	69.8	69.8	69.8	62	56.2	2	5	112	0.00	30.000 
21:15	69.6	69.6	69.6	62	56.0	3	10	112	0.00	29.998 
21:20	69.4	69.4	69.4	63	56.2	1	3	112	0.00	29.998 
21:25	69.1	69.1	69.1	63	56.0	2	5	112	0.00	29.998 
21:30	68.9	68.9	68.9	63	55.8	3	5	90	0.00	30.004 
21:35	68.6	68.6	68.6	63	55.5	2	6	112	0.00	30.004 
21:40	68.4	68.4	68.4	63	55.3	2	4	90	0.00	30.004 
21:45	68.3	68.3	68.3	64	55.6	1	4	90	0.00	30.008 
21:50	68.1	68.1	68.1	64	55.5	2	5	90	0.00	30.008 
21:55	67.9	67.9	67.9	63	54.8	3	6	90	0.00	30.008 
22:00	67.8	67.8	67.8	63	54.7	3	6	90	0.00	30.017 
22:05	67.6	67.6	67.6	63	54.5	2	5	90	0.00	30.017 
22:10	67.4	67.4	67.4	63	54.4	3	6	90	0.00	30.017 
22:15	67.3	67.3	67.3	63	54.3	2	4	90	0.00	30.024 
22:20	67.1	67.1	67.1	63	54.1	2	7	90	0.00	30.024 
22:25	67.1	67.1	67.1	63	54.1	2	6	68	0.00	30.024 
22:30	66.9	66.9	66.9	64	54.3	1	5	112	0.00	30.029 
22:35	66.9	66.9	66.9	63	53.9	3	6	90	0.00	30.029 
22:40	66.9	66.9	66.9	63	53.9	3	6	90	0.00	30.029 
22:45	66.8	66.8	66.8	62	53.4	2	6	90	0.00	30.033 
22:50	66.8	66.8	66.8	62	53.4	3	6	90	0.00	30.033 
22:55	66.6	66.6	66.6	62	53.2	1	4	112	0.00	30.033 
23:00	66.4	66.4	66.4	61	52.5	2	5	90	0.00	30.035 
23:05	66.3	66.3	66.3	62	52.9	2	6	90	0.00	30.035 
23:10	66.1	66.1	66.1	62	52.7	2	4	90	0.00	30.035 
23:15	66.0	66.0	66.0	63	53.0	1	3	112	0.00	30.033 
23:20	65.8	65.8	65.8	64	53.3	1	3	112	0.00	30.033 
23:25	65.6	65.6	65.6	65	53.5	0	2	112	0.00	30.033 
23:30	65.5	65.5	65.5	65	53.4	1	3	112	0.00	30.036 
23:35	65.3	65.3	65.3	65	53.2	1	4	90	0.00	30.036 
23:40	65.3	65.3	65.3	65	53.2	1	4	90	0.00	30.036 
23:45	65.3	65.3	65.3	64	52.8	1	4	90	0.00	30.036 
23:50	65.3	65.3	65.3	64	52.8	1	3	90	0.00	30.036 
23:55	65.2	65.2	65.2	64	52.7	2	4	112	0.00	30.036 

CoCoRaHS
IN-AL-39
A2 Web Hosting
Creative Commons License
GoDaddy
search engine by freefind advanced

loaded 2018-11-13 21:21:07 • last modified 2010-11-18 10:43:29
Privacy PolicyDisclaimer
• wx.awcolley.com is powered by PmWiki v.2002016 •
• all content (unless otherwise noted) © 2018 A W Colley